Hauptseite
METAR-TAF:

METAR-TAF

Flughäfen :

Flughafen Örnsköldsvik

Örnsköldsvik, Schweden

Breite: 63-24N, Länge: 018-58E, Höhe: 103 m

Beobachtung

Neuester Wetterbericht von vor 33 Minuten, um 08:20 UTC
Wind 8 kt aus Süd/Südost, variierte zwischen Südost und Süd
Temperatur 16°C
Luftfeuchtigkeit 82%
Luftdruck 1007 hPa
Sichtweite 10 km oder mehr

METAR: ESNO 180820Z AUTO 16008KT 130V190 9999 FEW015/// SCT020/// 16/13 Q1007

Zeit: 10:53 (08:53 UTC)

Prognose

Neuester Wetterbericht von vor 3 Stunden und 23 Minuten, um 05:30 UTC
Gültige Prognose vom 18 um 06 UTC bis 18 um 09 UTC
Wind 5 kt aus Süd
Sichtweite 10 km oder mehr
Aufgelockert bewölkt in der Höhe von 900 ft
Durchbrochene Bewölkung in der Höhe von 2000 ft
Zeitweise
vom 18 um 06 UTC bis 18 um 09 UTC
Durchbrochene Bewölkung in der Höhe von 900 ft

TAF: ESNO 180530Z 1806/1809 18005KT 9999 SCT009 BKN020 TEMPO 1806/1809 BKN009

Wetterbeobachtungen und Prognosen von mehr als 4000 Flughäfen (METAR und TAF Bericht).

Die verfügbaren Stationen werden durch gelbe und rote Markierungen auf der Karte dargestellt.

Führen Sie die Maus auf sie, um den Namen der Station zu sehen.

Darauf klicken, um die Beobachtung von Wetterbeobachtungen und Prognosen zu sehen.

Um die Karte zu ändern : klicken Sie auf den grünen Tasten mit einem schwarzen Kreuz Zum Vergrößern, auf den grünen Button mit einem Gedankenstrich zu verkleinern, oder auf die grünen Pfeile für benachbarte Karten.


METAR-TAF: